sensor_id;sensor_type;location;lat;lon;timestamp;P1;durP1;ratioP1;P2;durP2;ratioP2
6414;SDS011;3240;48.790;9.210;2023-04-07T00:00:35;14.97;;;7.47;;
6414;SDS011;3240;48.790;9.210;2023-04-07T00:03:03;11.80;;;8.20;;
6414;SDS011;3240;48.790;9.210;2023-04-07T00:05:32;12.47;;;8.00;;
6414;SDS011;3240;48.790;9.210;2023-04-07T00:08:00;12.40;;;7.80;;
6414;SDS011;3240;48.790;9.210;2023-04-07T00:10:28;12.93;;;7.73;;
6414;SDS011;3240;48.790;9.210;2023-04-07T00:12:56;13.30;;;7.63;;
6414;SDS011;3240;48.790;9.210;2023-04-07T00:15:24;12.07;;;7.37;;
6414;SDS011;3240;48.790;9.210;2023-04-07T00:17:52;12.40;;;7.60;;
6414;SDS011;3240;48.790;9.210;2023-04-07T00:20:20;10.43;;;7.00;;
6414;SDS011;3240;48.790;9.210;2023-04-07T00:22:48;10.97;;;6.80;;
6414;SDS011;3240;48.790;9.210;2023-04-07T00:25:16;10.63;;;6.87;;
6414;SDS011;3240;48.790;9.210;2023-04-07T00:27:44;10.23;;;6.43;;
6414;SDS011;3240;48.790;9.210;2023-04-07T00:30:12;11.30;;;6.03;;
6414;SDS011;3240;48.790;9.210;2023-04-07T00:32:40;9.23;;;6.43;;
6414;SDS011;3240;48.790;9.210;2023-04-07T00:35:08;11.63;;;6.83;;
6414;SDS011;3240;48.790;9.210;2023-04-07T00:37:36;9.90;;;6.30;;
6414;SDS011;3240;48.790;9.210;2023-04-07T00:40:05;11.63;;;6.60;;
6414;SDS011;3240;48.790;9.210;2023-04-07T00:42:33;10.63;;;6.43;;
6414;SDS011;3240;48.790;9.210;2023-04-07T00:45:01;8.87;;;5.87;;
6414;SDS011;3240;48.790;9.210;2023-04-07T00:47:29;9.90;;;6.10;;
6414;SDS011;3240;48.790;9.210;2023-04-07T00:49:57;10.80;;;5.83;;
6414;SDS011;3240;48.790;9.210;2023-04-07T00:52:25;9.23;;;6.20;;
6414;SDS011;3240;48.790;9.210;2023-04-07T00:54:53;14.27;;;7.80;;
6414;SDS011;3240;48.790;9.210;2023-04-07T00:57:21;10.53;;;6.53;;
6414;SDS011;3240;48.790;9.210;2023-04-07T00:59:49;12.23;;;6.53;;
6414;SDS011;3240;48.790;9.210;2023-04-07T01:02:20;12.20;;;6.50;;
6414;SDS011;3240;48.790;9.210;2023-04-07T01:04:50;9.47;;;6.40;;
6414;SDS011;3240;48.790;9.210;2023-04-07T01:07:18;16.90;;;7.40;;
6414;SDS011;3240;48.790;9.210;2023-04-07T01:09:45;10.97;;;7.03;;
6414;SDS011;3240;48.790;9.210;2023-04-07T01:12:18;11.50;;;6.83;;
6414;SDS011;3240;48.790;9.210;2023-04-07T01:14:46;10.23;;;6.90;;
6414;SDS011;3240;48.790;9.210;2023-04-07T01:17:13;9.43;;;7.23;;
6414;SDS011;3240;48.790;9.210;2023-04-07T01:19:42;14.10;;;8.17;;
6414;SDS011;3240;48.790;9.210;2023-04-07T01:22:10;9.07;;;6.57;;
6414;SDS011;3240;48.790;9.210;2023-04-07T01:30:03;11.30;;;7.50;;
6414;SDS011;3240;48.790;9.210;2023-04-07T01:32:32;8.87;;;6.60;;
6414;SDS011;3240;48.790;9.210;2023-04-07T01:35:00;10.20;;;6.40;;
6414;SDS011;3240;48.790;9.210;2023-04-07T01:37:28;12.53;;;7.67;;
6414;SDS011;3240;48.790;9.210;2023-04-07T01:39:56;10.47;;;7.03;;
6414;SDS011;3240;48.790;9.210;2023-04-07T01:42:24;12.33;;;7.93;;
6414;SDS011;3240;48.790;9.210;2023-04-07T01:44:52;12.20;;;7.63;;
6414;SDS011;3240;48.790;9.210;2023-04-07T01:47:20;11.80;;;7.30;;
6414;SDS011;3240;48.790;9.210;2023-04-07T01:49:48;13.20;;;7.63;;
6414;SDS011;3240;48.790;9.210;2023-04-07T01:52:16;12.80;;;7.43;;
6414;SDS011;3240;48.790;9.210;2023-04-07T01:54:44;12.60;;;7.30;;
6414;SDS011;3240;48.790;9.210;2023-04-07T01:57:12;10.77;;;7.67;;
6414;SDS011;3240;48.790;9.210;2023-04-07T01:59:40;10.90;;;7.20;;
6414;SDS011;3240;48.790;9.210;2023-04-07T02:02:08;11.73;;;7.10;;
6414;SDS011;3240;48.790;9.210;2023-04-07T02:04:38;11.43;;;7.30;;
6414;SDS011;3240;48.790;9.210;2023-04-07T02:07:07;13.73;;;7.60;;
6414;SDS011;3240;48.790;9.210;2023-04-07T02:09:33;10.00;;;6.60;;
6414;SDS011;3240;48.790;9.210;2023-04-07T02:12:01;12.63;;;6.67;;
6414;SDS011;3240;48.790;9.210;2023-04-07T02:14:29;12.57;;;7.20;;
6414;SDS011;3240;48.790;9.210;2023-04-07T02:16:57;12.50;;;7.13;;
6414;SDS011;3240;48.790;9.210;2023-04-07T02:19:25;12.33;;;7.50;;
6414;SDS011;3240;48.790;9.210;2023-04-07T02:21:54;12.10;;;8.17;;
6414;SDS011;3240;48.790;9.210;2023-04-07T02:24:21;11.33;;;6.70;;
6414;SDS011;3240;48.790;9.210;2023-04-07T02:26:49;12.77;;;7.63;;
6414;SDS011;3240;48.790;9.210;2023-04-07T02:29:17;15.23;;;8.17;;
6414;SDS011;3240;48.790;9.210;2023-04-07T02:31:45;15.27;;;8.20;;
6414;SDS011;3240;48.790;9.210;2023-04-07T02:34:13;15.63;;;8.27;;
6414;SDS011;3240;48.790;9.210;2023-04-07T02:36:41;11.90;;;7.73;;
6414;SDS011;3240;48.790;9.210;2023-04-07T02:39:09;12.73;;;6.80;;
6414;SDS011;3240;48.790;9.210;2023-04-07T02:41:37;13.10;;;8.40;;
6414;SDS011;3240;48.790;9.210;2023-04-07T02:44:06;12.00;;;7.23;;
6414;SDS011;3240;48.790;9.210;2023-04-07T02:46:34;16.53;;;7.53;;
6414;SDS011;3240;48.790;9.210;2023-04-07T02:49:02;11.30;;;7.60;;
6414;SDS011;3240;48.790;9.210;2023-04-07T02:51:30;12.60;;;8.20;;
6414;SDS011;3240;48.790;9.210;2023-04-07T02:53:58;9.80;;;7.07;;
6414;SDS011;3240;48.790;9.210;2023-04-07T02:56:26;11.77;;;7.43;;
6414;SDS011;3240;48.790;9.210;2023-04-07T02:58:54;12.60;;;7.90;;
6414;SDS011;3240;48.790;9.210;2023-04-07T03:01:22;15.00;;;8.80;;
6414;SDS011;3240;48.790;9.210;2023-04-07T03:03:50;10.90;;;7.93;;
6414;SDS011;3240;48.790;9.210;2023-04-07T03:06:18;14.63;;;7.70;;
6414;SDS011;3240;48.790;9.210;2023-04-07T03:08:46;13.87;;;7.83;;
6414;SDS011;3240;48.790;9.210;2023-04-07T03:11:14;15.30;;;8.67;;
6414;SDS011;3240;48.790;9.210;2023-04-07T03:13:42;14.40;;;7.60;;
6414;SDS011;3240;48.790;9.210;2023-04-07T03:16:10;18.80;;;8.90;;
6414;SDS011;3240;48.790;9.210;2023-04-07T03:18:38;13.50;;;8.43;;
6414;SDS011;3240;48.790;9.210;2023-04-07T03:21:06;15.87;;;8.00;;
6414;SDS011;3240;48.790;9.210;2023-04-07T03:23:34;10.80;;;7.70;;
6414;SDS011;3240;48.790;9.210;2023-04-07T03:26:02;15.43;;;8.80;;
6414;SDS011;3240;48.790;9.210;2023-04-07T03:28:30;14.07;;;8.23;;
6414;SDS011;3240;48.790;9.210;2023-04-07T03:30:59;13.90;;;7.70;;
6414;SDS011;3240;48.790;9.210;2023-04-07T03:33:27;12.30;;;8.33;;
6414;SDS011;3240;48.790;9.210;2023-04-07T03:35:55;15.10;;;8.40;;
6414;SDS011;3240;48.790;9.210;2023-04-07T03:38:23;18.23;;;7.90;;
6414;SDS011;3240;48.790;9.210;2023-04-07T03:40:51;16.27;;;9.00;;
6414;SDS011;3240;48.790;9.210;2023-04-07T03:43:19;13.47;;;7.90;;
6414;SDS011;3240;48.790;9.210;2023-04-07T03:45:47;13.30;;;8.10;;
6414;SDS011;3240;48.790;9.210;2023-04-07T03:48:15;13.47;;;8.43;;
6414;SDS011;3240;48.790;9.210;2023-04-07T03:50:44;15.00;;;8.87;;
6414;SDS011;3240;48.790;9.210;2023-04-07T03:53:11;12.63;;;8.53;;
6414;SDS011;3240;48.790;9.210;2023-04-07T03:55:42;14.43;;;7.73;;
6414;SDS011;3240;48.790;9.210;2023-04-07T03:58:10;14.50;;;8.07;;
6414;SDS011;3240;48.790;9.210;2023-04-07T04:00:38;14.00;;;8.87;;
6414;SDS011;3240;48.790;9.210;2023-04-07T04:03:06;14.17;;;9.70;;
6414;SDS011;3240;48.790;9.210;2023-04-07T04:05:34;15.43;;;8.30;;
6414;SDS011;3240;48.790;9.210;2023-04-07T04:08:03;12.50;;;8.00;;
6414;SDS011;3240;48.790;9.210;2023-04-07T04:10:31;13.60;;;8.03;;
6414;SDS011;3240;48.790;9.210;2023-04-07T04:12:59;16.57;;;8.80;;
6414;SDS011;3240;48.790;9.210;2023-04-07T04:15:27;16.13;;;8.63;;
6414;SDS011;3240;48.790;9.210;2023-04-07T04:17:55;13.60;;;8.37;;
6414;SDS011;3240;48.790;9.210;2023-04-07T04:20:23;12.27;;;8.07;;
6414;SDS011;3240;48.790;9.210;2023-04-07T04:22:51;15.30;;;8.97;;
6414;SDS011;3240;48.790;9.210;2023-04-07T04:25:19;15.07;;;8.70;;
6414;SDS011;3240;48.790;9.210;2023-04-07T04:27:47;14.37;;;8.70;;
6414;SDS011;3240;48.790;9.210;2023-04-07T04:30:15;14.70;;;8.90;;
6414;SDS011;3240;48.790;9.210;2023-04-07T04:32:43;13.50;;;8.13;;
6414;SDS011;3240;48.790;9.210;2023-04-07T04:35:11;16.87;;;9.63;;
6414;SDS011;3240;48.790;9.210;2023-04-07T04:37:39;14.77;;;9.17;;
6414;SDS011;3240;48.790;9.210;2023-04-07T04:40:08;13.43;;;8.70;;
6414;SDS011;3240;48.790;9.210;2023-04-07T04:42:36;16.07;;;9.10;;
6414;SDS011;3240;48.790;9.210;2023-04-07T04:45:04;17.00;;;9.03;;
6414;SDS011;3240;48.790;9.210;2023-04-07T04:47:32;20.33;;;8.80;;
6414;SDS011;3240;48.790;9.210;2023-04-07T04:50:00;16.60;;;9.67;;
6414;SDS011;3240;48.790;9.210;2023-04-07T04:52:28;14.27;;;8.90;;
6414;SDS011;3240;48.790;9.210;2023-04-07T04:54:56;19.30;;;9.50;;
6414;SDS011;3240;48.790;9.210;2023-04-07T04:57:24;15.17;;;9.07;;
6414;SDS011;3240;48.790;9.210;2023-04-07T04:59:52;12.87;;;8.73;;
6414;SDS011;3240;48.790;9.210;2023-04-07T05:02:20;15.03;;;8.30;;
6414;SDS011;3240;48.790;9.210;2023-04-07T05:04:48;16.90;;;9.47;;
6414;SDS011;3240;48.790;9.210;2023-04-07T05:07:16;16.17;;;9.40;;
6414;SDS011;3240;48.790;9.210;2023-04-07T05:09:44;14.87;;;9.10;;
6414;SDS011;3240;48.790;9.210;2023-04-07T05:12:12;13.47;;;8.57;;
6414;SDS011;3240;48.790;9.210;2023-04-07T05:14:40;14.30;;;8.93;;
6414;SDS011;3240;48.790;9.210;2023-04-07T05:17:08;16.10;;;9.07;;
6414;SDS011;3240;48.790;9.210;2023-04-07T05:19:37;15.77;;;9.80;;
6414;SDS011;3240;48.790;9.210;2023-04-07T05:22:05;15.97;;;9.90;;
6414;SDS011;3240;48.790;9.210;2023-04-07T05:24:33;15.67;;;9.17;;
6414;SDS011;3240;48.790;9.210;2023-04-07T05:27:01;14.73;;;9.77;;
6414;SDS011;3240;48.790;9.210;2023-04-07T05:29:29;15.40;;;9.20;;
6414;SDS011;3240;48.790;9.210;2023-04-07T05:31:57;18.07;;;9.80;;
6414;SDS011;3240;48.790;9.210;2023-04-07T05:34:25;15.97;;;9.13;;
6414;SDS011;3240;48.790;9.210;2023-04-07T05:36:53;18.43;;;8.60;;
6414;SDS011;3240;48.790;9.210;2023-04-07T05:39:21;14.30;;;10.00;;
6414;SDS011;3240;48.790;9.210;2023-04-07T05:41:49;17.10;;;10.03;;
6414;SDS011;3240;48.790;9.210;2023-04-07T05:44:17;14.90;;;9.13;;
6414;SDS011;3240;48.790;9.210;2023-04-07T05:46:45;14.23;;;9.07;;
6414;SDS011;3240;48.790;9.210;2023-04-07T05:49:13;16.13;;;9.23;;
6414;SDS011;3240;48.790;9.210;2023-04-07T05:51:41;13.67;;;8.73;;
6414;SDS011;3240;48.790;9.210;2023-04-07T05:54:09;13.87;;;9.13;;
6414;SDS011;3240;48.790;9.210;2023-04-07T05:56:37;13.30;;;9.23;;
6414;SDS011;3240;48.790;9.210;2023-04-07T05:59:05;15.60;;;9.20;;
6414;SDS011;3240;48.790;9.210;2023-04-07T06:01:33;14.33;;;9.50;;
6414;SDS011;3240;48.790;9.210;2023-04-07T06:04:01;16.23;;;8.63;;
6414;SDS011;3240;48.790;9.210;2023-04-07T06:06:29;14.73;;;9.57;;
6414;SDS011;3240;48.790;9.210;2023-04-07T06:08:57;13.03;;;9.33;;
6414;SDS011;3240;48.790;9.210;2023-04-07T06:11:25;17.03;;;8.83;;
6414;SDS011;3240;48.790;9.210;2023-04-07T06:13:53;14.43;;;9.60;;
6414;SDS011;3240;48.790;9.210;2023-04-07T06:16:21;13.77;;;9.10;;
6414;SDS011;3240;48.790;9.210;2023-04-07T06:18:49;15.50;;;9.57;;
6414;SDS011;3240;48.790;9.210;2023-04-07T06:21:17;13.13;;;9.20;;
6414;SDS011;3240;48.790;9.210;2023-04-07T06:23:45;20.27;;;10.33;;
6414;SDS011;3240;48.790;9.210;2023-04-07T06:26:13;15.80;;;10.33;;
6414;SDS011;3240;48.790;9.210;2023-04-07T06:28:41;15.57;;;9.20;;
6414;SDS011;3240;48.790;9.210;2023-04-07T06:31:09;15.70;;;9.03;;
6414;SDS011;3240;48.790;9.210;2023-04-07T06:33:37;17.20;;;10.37;;
6414;SDS011;3240;48.790;9.210;2023-04-07T06:36:06;14.10;;;9.40;;
6414;SDS011;3240;48.790;9.210;2023-04-07T06:38:34;15.30;;;10.00;;
6414;SDS011;3240;48.790;9.210;2023-04-07T06:41:02;18.03;;;9.63;;
6414;SDS011;3240;48.790;9.210;2023-04-07T06:43:30;13.17;;;8.17;;
6414;SDS011;3240;48.790;9.210;2023-04-07T06:45:58;12.70;;;8.73;;
6414;SDS011;3240;48.790;9.210;2023-04-07T06:48:26;13.50;;;8.73;;
6414;SDS011;3240;48.790;9.210;2023-04-07T06:50:54;13.93;;;9.93;;
6414;SDS011;3240;48.790;9.210;2023-04-07T06:53:22;17.37;;;9.80;;
6414;SDS011;3240;48.790;9.210;2023-04-07T06:55:50;17.40;;;9.50;;
6414;SDS011;3240;48.790;9.210;2023-04-07T06:58:18;15.07;;;9.43;;
6414;SDS011;3240;48.790;9.210;2023-04-07T07:00:46;14.23;;;9.30;;
6414;SDS011;3240;48.790;9.210;2023-04-07T07:03:14;17.50;;;8.97;;
6414;SDS011;3240;48.790;9.210;2023-04-07T07:05:42;16.07;;;9.47;;
6414;SDS011;3240;48.790;9.210;2023-04-07T07:08:10;16.93;;;9.20;;
6414;SDS011;3240;48.790;9.210;2023-04-07T07:10:38;14.70;;;9.40;;
6414;SDS011;3240;48.790;9.210;2023-04-07T07:13:06;15.93;;;8.87;;
6414;SDS011;3240;48.790;9.210;2023-04-07T07:15:34;12.43;;;9.30;;
6414;SDS011;3240;48.790;9.210;2023-04-07T07:18:02;14.60;;;8.80;;
6414;SDS011;3240;48.790;9.210;2023-04-07T07:20:30;15.77;;;9.70;;
6414;SDS011;3240;48.790;9.210;2023-04-07T07:22:58;14.60;;;9.17;;
6414;SDS011;3240;48.790;9.210;2023-04-07T07:25:26;17.35;;;11.05;;
6414;SDS011;3240;48.790;9.210;2023-04-07T07:27:54;14.07;;;9.10;;
6414;SDS011;3240;48.790;9.210;2023-04-07T07:30:22;14.77;;;9.10;;
6414;SDS011;3240;48.790;9.210;2023-04-07T07:32:50;17.80;;;9.50;;
6414;SDS011;3240;48.790;9.210;2023-04-07T07:35:19;14.00;;;9.27;;
6414;SDS011;3240;48.790;9.210;2023-04-07T07:37:46;13.43;;;8.40;;
6414;SDS011;3240;48.790;9.210;2023-04-07T07:40:14;14.67;;;9.50;;
6414;SDS011;3240;48.790;9.210;2023-04-07T07:42:44;13.10;;;9.70;;
6414;SDS011;3240;48.790;9.210;2023-04-07T07:45:10;16.73;;;9.60;;
6414;SDS011;3240;48.790;9.210;2023-04-07T07:47:39;15.80;;;9.20;;
6414;SDS011;3240;48.790;9.210;2023-04-07T07:50:07;12.70;;;8.23;;
6414;SDS011;3240;48.790;9.210;2023-04-07T07:52:35;17.33;;;10.20;;
6414;SDS011;3240;48.790;9.210;2023-04-07T07:55:03;16.57;;;10.00;;
6414;SDS011;3240;48.790;9.210;2023-04-07T07:57:31;16.40;;;9.60;;
6414;SDS011;3240;48.790;9.210;2023-04-07T07:59:59;17.47;;;9.63;;
6414;SDS011;3240;48.790;9.210;2023-04-07T08:02:27;17.37;;;10.57;;
6414;SDS011;3240;48.790;9.210;2023-04-07T08:04:56;15.00;;;9.43;;
6414;SDS011;3240;48.790;9.210;2023-04-07T08:07:25;16.87;;;10.13;;
6414;SDS011;3240;48.790;9.210;2023-04-07T08:09:52;12.87;;;8.87;;
6414;SDS011;3240;48.790;9.210;2023-04-07T08:12:20;15.80;;;10.37;;
6414;SDS011;3240;48.790;9.210;2023-04-07T08:14:48;14.90;;;9.33;;
6414;SDS011;3240;48.790;9.210;2023-04-07T08:17:16;15.90;;;10.47;;
6414;SDS011;3240;48.790;9.210;2023-04-07T08:19:44;12.43;;;8.90;;
6414;SDS011;3240;48.790;9.210;2023-04-07T08:22:12;12.37;;;8.83;;
6414;SDS011;3240;48.790;9.210;2023-04-07T08:24:41;13.37;;;9.23;;
6414;SDS011;3240;48.790;9.210;2023-04-07T08:27:09;11.20;;;8.30;;
6414;SDS011;3240;48.790;9.210;2023-04-07T08:29:37;12.93;;;8.57;;
6414;SDS011;3240;48.790;9.210;2023-04-07T08:32:05;12.20;;;7.63;;
6414;SDS011;3240;48.790;9.210;2023-04-07T08:34:33;11.43;;;7.50;;
6414;SDS011;3240;48.790;9.210;2023-04-07T08:37:01;11.83;;;7.40;;
6414;SDS011;3240;48.790;9.210;2023-04-07T08:39:29;11.07;;;6.70;;
6414;SDS011;3240;48.790;9.210;2023-04-07T08:41:57;7.73;;;5.90;;
6414;SDS011;3240;48.790;9.210;2023-04-07T08:44:25;10.17;;;5.50;;
6414;SDS011;3240;48.790;9.210;2023-04-07T08:46:53;7.03;;;5.53;;
6414;SDS011;3240;48.790;9.210;2023-04-07T08:49:21;10.83;;;6.63;;
6414;SDS011;3240;48.790;9.210;2023-04-07T08:51:49;10.97;;;6.80;;
6414;SDS011;3240;48.790;9.210;2023-04-07T08:54:17;9.13;;;6.53;;
6414;SDS011;3240;48.790;9.210;2023-04-07T08:56:45;8.03;;;6.30;;
6414;SDS011;3240;48.790;9.210;2023-04-07T08:59:13;10.70;;;7.03;;
6414;SDS011;3240;48.790;9.210;2023-04-07T09:01:41;9.47;;;6.57;;
6414;SDS011;3240;48.790;9.210;2023-04-07T09:04:09;10.70;;;6.60;;
6414;SDS011;3240;48.790;9.210;2023-04-07T09:06:37;9.33;;;7.07;;
6414;SDS011;3240;48.790;9.210;2023-04-07T09:09:05;7.97;;;5.77;;
6414;SDS011;3240;48.790;9.210;2023-04-07T09:11:34;8.63;;;6.33;;
6414;SDS011;3240;48.790;9.210;2023-04-07T09:14:02;12.87;;;7.00;;
6414;SDS011;3240;48.790;9.210;2023-04-07T09:16:30;9.17;;;6.00;;
6414;SDS011;3240;48.790;9.210;2023-04-07T09:18:58;9.53;;;6.17;;
6414;SDS011;3240;48.790;9.210;2023-04-07T09:21:26;9.40;;;6.63;;
6414;SDS011;3240;48.790;9.210;2023-04-07T09:23:54;7.70;;;5.80;;
6414;SDS011;3240;48.790;9.210;2023-04-07T09:26:22;7.20;;;5.87;;
6414;SDS011;3240;48.790;9.210;2023-04-07T09:28:52;12.03;;;6.83;;
6414;SDS011;3240;48.790;9.210;2023-04-07T09:31:19;8.47;;;6.17;;
6414;SDS011;3240;48.790;9.210;2023-04-07T09:33:48;9.97;;;6.60;;
6414;SDS011;3240;48.790;9.210;2023-04-07T09:36:15;9.70;;;6.07;;
6414;SDS011;3240;48.790;9.210;2023-04-07T09:38:44;9.10;;;5.90;;
6414;SDS011;3240;48.790;9.210;2023-04-07T09:41:12;9.73;;;5.93;;
6414;SDS011;3240;48.790;9.210;2023-04-07T09:43:40;11.10;;;5.50;;
6414;SDS011;3240;48.790;9.210;2023-04-07T09:46:08;9.70;;;6.23;;
6414;SDS011;3240;48.790;9.210;2023-04-07T09:48:35;11.03;;;6.77;;
6414;SDS011;3240;48.790;9.210;2023-04-07T09:51:08;11.47;;;6.20;;
6414;SDS011;3240;48.790;9.210;2023-04-07T09:53:40;10.57;;;7.23;;
6414;SDS011;3240;48.790;9.210;2023-04-07T09:56:09;9.07;;;6.50;;
6414;SDS011;3240;48.790;9.210;2023-04-07T09:58:37;12.43;;;6.83;;
6414;SDS011;3240;48.790;9.210;2023-04-07T10:01:05;9.97;;;6.07;;
6414;SDS011;3240;48.790;9.210;2023-04-07T10:03:34;7.07;;;5.43;;
6414;SDS011;3240;48.790;9.210;2023-04-07T10:06:01;8.07;;;5.80;;
6414;SDS011;3240;48.790;9.210;2023-04-07T10:08:30;7.30;;;5.57;;
6414;SDS011;3240;48.790;9.210;2023-04-07T10:10:58;9.93;;;5.83;;
6414;SDS011;3240;48.790;9.210;2023-04-07T10:13:25;11.40;;;6.63;;
6414;SDS011;3240;48.790;9.210;2023-04-07T10:15:53;9.97;;;5.90;;
6414;SDS011;3240;48.790;9.210;2023-04-07T10:18:21;8.83;;;5.43;;
6414;SDS011;3240;48.790;9.210;2023-04-07T10:20:49;8.97;;;5.70;;
6414;SDS011;3240;48.790;9.210;2023-04-07T10:23:18;9.80;;;6.37;;
6414;SDS011;3240;48.790;9.210;2023-04-07T10:25:45;9.17;;;6.60;;
6414;SDS011;3240;48.790;9.210;2023-04-07T10:28:13;9.70;;;5.50;;
6414;SDS011;3240;48.790;9.210;2023-04-07T10:30:42;7.83;;;5.97;;
6414;SDS011;3240;48.790;9.210;2023-04-07T10:33:10;14.00;;;4.90;;
6414;SDS011;3240;48.790;9.210;2023-04-07T10:36:01;7.73;;;5.83;;
6414;SDS011;3240;48.790;9.210;2023-04-07T10:38:09;12.97;;;5.87;;
6414;SDS011;3240;48.790;9.210;2023-04-07T10:40:37;10.45;;;6.78;;
6414;SDS011;3240;48.790;9.210;2023-04-07T10:43:05;9.87;;;6.30;;
6414;SDS011;3240;48.790;9.210;2023-04-07T10:48:10;9.97;;;5.53;;
6414;SDS011;3240;48.790;9.210;2023-04-07T10:50:38;10.30;;;5.60;;
6414;SDS011;3240;48.790;9.210;2023-04-07T10:53:08;7.93;;;5.87;;
6414;SDS011;3240;48.790;9.210;2023-04-07T10:55:37;8.60;;;6.20;;
6414;SDS011;3240;48.790;9.210;2023-04-07T11:00:39;9.67;;;5.07;;
6414;SDS011;3240;48.790;9.210;2023-04-07T11:03:09;7.70;;;5.60;;
6414;SDS011;3240;48.790;9.210;2023-04-07T11:05:36;11.50;;;5.83;;
6414;SDS011;3240;48.790;9.210;2023-04-07T11:08:04;7.57;;;5.50;;
6414;SDS011;3240;48.790;9.210;2023-04-07T11:10:32;8.57;;;5.67;;
6414;SDS011;3240;48.790;9.210;2023-04-07T11:13:02;11.77;;;6.50;;
6414;SDS011;3240;48.790;9.210;2023-04-07T11:15:29;13.90;;;5.70;;
6414;SDS011;3240;48.790;9.210;2023-04-07T11:23:06;9.70;;;5.30;;
6414;SDS011;3240;48.790;9.210;2023-04-07T11:25:34;9.83;;;4.87;;
6414;SDS011;3240;48.790;9.210;2023-04-07T11:28:02;7.03;;;4.70;;
6414;SDS011;3240;48.790;9.210;2023-04-07T11:30:30;7.60;;;4.70;;
6414;SDS011;3240;48.790;9.210;2023-04-07T11:32:58;9.43;;;4.57;;
6414;SDS011;3240;48.790;9.210;2023-04-07T11:35:26;7.17;;;4.93;;
6414;SDS011;3240;48.790;9.210;2023-04-07T11:37:56;7.30;;;5.00;;
6414;SDS011;3240;48.790;9.210;2023-04-07T11:40:31;9.77;;;4.87;;
6414;SDS011;3240;48.790;9.210;2023-04-07T11:42:58;7.87;;;5.30;;
6414;SDS011;3240;48.790;9.210;2023-04-07T11:45:26;8.60;;;5.27;;
6414;SDS011;3240;48.790;9.210;2023-04-07T11:47:54;11.70;;;5.40;;
6414;SDS011;3240;48.790;9.210;2023-04-07T11:52:56;8.90;;;5.10;;
6414;SDS011;3240;48.790;9.210;2023-04-07T11:55:24;6.67;;;4.80;;
6414;SDS011;3240;48.790;9.210;2023-04-07T11:57:52;11.20;;;4.73;;
6414;SDS011;3240;48.790;9.210;2023-04-07T12:00:20;10.80;;;5.10;;
6414;SDS011;3240;48.790;9.210;2023-04-07T12:02:48;10.17;;;5.27;;
6414;SDS011;3240;48.790;9.210;2023-04-07T12:05:16;7.80;;;5.40;;
6414;SDS011;3240;48.790;9.210;2023-04-07T12:10:18;10.68;;;6.28;;
6414;SDS011;3240;48.790;9.210;2023-04-07T12:12:46;7.90;;;5.50;;
6414;SDS011;3240;48.790;9.210;2023-04-07T12:15:14;10.40;;;6.30;;
6414;SDS011;3240;48.790;9.210;2023-04-07T12:17:44;8.30;;;6.17;;
6414;SDS011;3240;48.790;9.210;2023-04-07T12:20:12;12.30;;;6.53;;
6414;SDS011;3240;48.790;9.210;2023-04-07T12:22:40;7.80;;;6.03;;
6414;SDS011;3240;48.790;9.210;2023-04-07T12:25:08;11.13;;;6.27;;
6414;SDS011;3240;48.790;9.210;2023-04-07T12:27:36;10.80;;;6.80;;
6414;SDS011;3240;48.790;9.210;2023-04-07T12:30:04;10.73;;;6.23;;
6414;SDS011;3240;48.790;9.210;2023-04-07T12:32:33;6.40;;;4.67;;
6414;SDS011;3240;48.790;9.210;2023-04-07T12:35:01;6.90;;;4.33;;
6414;SDS011;3240;48.790;9.210;2023-04-07T12:37:29;5.97;;;3.33;;
6414;SDS011;3240;48.790;9.210;2023-04-07T12:39:57;7.43;;;3.67;;
6414;SDS011;3240;48.790;9.210;2023-04-07T12:42:25;3.53;;;2.23;;
6414;SDS011;3240;48.790;9.210;2023-04-07T12:44:53;4.60;;;2.33;;
6414;SDS011;3240;48.790;9.210;2023-04-07T12:47:21;4.63;;;2.73;;
6414;SDS011;3240;48.790;9.210;2023-04-07T12:49:49;3.60;;;2.10;;
6414;SDS011;3240;48.790;9.210;2023-04-07T12:52:17;4.20;;;2.43;;
6414;SDS011;3240;48.790;9.210;2023-04-07T12:54:45;7.77;;;3.67;;
6414;SDS011;3240;48.790;9.210;2023-04-07T12:57:13;5.30;;;3.20;;
6414;SDS011;3240;48.790;9.210;2023-04-07T12:59:41;5.97;;;3.60;;
6414;SDS011;3240;48.790;9.210;2023-04-07T13:02:09;2.90;;;2.07;;
6414;SDS011;3240;48.790;9.210;2023-04-07T13:04:37;4.70;;;2.00;;
6414;SDS011;3240;48.790;9.210;2023-04-07T13:07:05;2.63;;;1.37;;
6414;SDS011;3240;48.790;9.210;2023-04-07T13:09:33;2.53;;;1.73;;
6414;SDS011;3240;48.790;9.210;2023-04-07T13:12:01;2.10;;;1.67;;
6414;SDS011;3240;48.790;9.210;2023-04-07T13:14:29;2.40;;;1.83;;
6414;SDS011;3240;48.790;9.210;2023-04-07T13:16:57;2.40;;;1.73;;
6414;SDS011;3240;48.790;9.210;2023-04-07T13:19:25;3.23;;;2.50;;
6414;SDS011;3240;48.790;9.210;2023-04-07T13:21:53;4.07;;;2.60;;
6414;SDS011;3240;48.790;9.210;2023-04-07T13:24:21;3.53;;;2.27;;
6414;SDS011;3240;48.790;9.210;2023-04-07T13:26:50;3.10;;;2.27;;
6414;SDS011;3240;48.790;9.210;2023-04-07T13:29:17;4.10;;;2.40;;
6414;SDS011;3240;48.790;9.210;2023-04-07T13:31:46;5.77;;;3.10;;
6414;SDS011;3240;48.790;9.210;2023-04-07T13:34:14;5.07;;;3.20;;
6414;SDS011;3240;48.790;9.210;2023-04-07T13:36:42;5.40;;;3.70;;
6414;SDS011;3240;48.790;9.210;2023-04-07T13:39:10;6.10;;;4.10;;
6414;SDS011;3240;48.790;9.210;2023-04-07T13:41:38;4.50;;;3.07;;
6414;SDS011;3240;48.790;9.210;2023-04-07T13:44:06;4.33;;;2.70;;
6414;SDS011;3240;48.790;9.210;2023-04-07T13:46:34;4.17;;;3.00;;
6414;SDS011;3240;48.790;9.210;2023-04-07T13:49:02;4.93;;;2.23;;
6414;SDS011;3240;48.790;9.210;2023-04-07T13:51:30;6.17;;;3.70;;
6414;SDS011;3240;48.790;9.210;2023-04-07T13:53:58;3.80;;;2.77;;
6414;SDS011;3240;48.790;9.210;2023-04-07T13:56:26;4.93;;;2.50;;
6414;SDS011;3240;48.790;9.210;2023-04-07T13:58:54;6.37;;;2.90;;
6414;SDS011;3240;48.790;9.210;2023-04-07T14:01:22;4.17;;;3.13;;
6414;SDS011;3240;48.790;9.210;2023-04-07T14:03:50;5.53;;;2.87;;
6414;SDS011;3240;48.790;9.210;2023-04-07T14:06:18;6.33;;;3.40;;
6414;SDS011;3240;48.790;9.210;2023-04-07T14:08:46;6.30;;;4.20;;
6414;SDS011;3240;48.790;9.210;2023-04-07T14:11:15;6.80;;;3.50;;
6414;SDS011;3240;48.790;9.210;2023-04-07T14:13:43;7.10;;;4.00;;
6414;SDS011;3240;48.790;9.210;2023-04-07T14:16:11;6.47;;;3.50;;
6414;SDS011;3240;48.790;9.210;2023-04-07T14:18:39;6.00;;;3.60;;
6414;SDS011;3240;48.790;9.210;2023-04-07T14:21:07;5.53;;;3.30;;
6414;SDS011;3240;48.790;9.210;2023-04-07T14:23:35;4.93;;;3.30;;
6414;SDS011;3240;48.790;9.210;2023-04-07T14:26:03;5.13;;;3.10;;
6414;SDS011;3240;48.790;9.210;2023-04-07T14:28:31;4.63;;;4.00;;
6414;SDS011;3240;48.790;9.210;2023-04-07T14:30:59;7.43;;;4.10;;
6414;SDS011;3240;48.790;9.210;2023-04-07T14:33:27;4.90;;;3.40;;
6414;SDS011;3240;48.790;9.210;2023-04-07T14:35:55;6.17;;;3.83;;
6414;SDS011;3240;48.790;9.210;2023-04-07T14:38:23;8.60;;;3.80;;
6414;SDS011;3240;48.790;9.210;2023-04-07T14:40:51;6.10;;;3.53;;
6414;SDS011;3240;48.790;9.210;2023-04-07T14:43:19;4.27;;;3.13;;
6414;SDS011;3240;48.790;9.210;2023-04-07T14:45:47;5.53;;;3.70;;
6414;SDS011;3240;48.790;9.210;2023-04-07T14:48:15;5.77;;;3.80;;
6414;SDS011;3240;48.790;9.210;2023-04-07T14:50:43;6.57;;;3.60;;
6414;SDS011;3240;48.790;9.210;2023-04-07T14:53:11;5.60;;;3.63;;
6414;SDS011;3240;48.790;9.210;2023-04-07T14:55:40;6.83;;;3.50;;
6414;SDS011;3240;48.790;9.210;2023-04-07T14:58:07;4.90;;;3.50;;
6414;SDS011;3240;48.790;9.210;2023-04-07T15:00:35;3.20;;;2.90;;
6414;SDS011;3240;48.790;9.210;2023-04-07T15:03:03;5.83;;;3.50;;
6414;SDS011;3240;48.790;9.210;2023-04-07T15:05:31;6.23;;;3.20;;
6414;SDS011;3240;48.790;9.210;2023-04-07T15:08:00;4.27;;;2.73;;
6414;SDS011;3240;48.790;9.210;2023-04-07T15:10:27;6.10;;;3.20;;
6414;SDS011;3240;48.790;9.210;2023-04-07T15:12:56;5.00;;;3.50;;
6414;SDS011;3240;48.790;9.210;2023-04-07T15:15:24;3.40;;;3.00;;
6414;SDS011;3240;48.790;9.210;2023-04-07T15:17:52;4.67;;;3.57;;
6414;SDS011;3240;48.790;9.210;2023-04-07T15:20:20;5.00;;;2.50;;
6414;SDS011;3240;48.790;9.210;2023-04-07T15:22:48;5.23;;;3.17;;
6414;SDS011;3240;48.790;9.210;2023-04-07T15:25:16;5.63;;;3.40;;
6414;SDS011;3240;48.790;9.210;2023-04-07T15:27:44;6.47;;;3.37;;
6414;SDS011;3240;48.790;9.210;2023-04-07T15:30:12;7.07;;;3.77;;